sensor_id;sensor_type;location;lat;lon;timestamp;temperature;humidity
62991;DHT22;49084;48.204;16.202;2023-03-01T00:01:11;-2.40;99.90
62991;DHT22;49084;48.204;16.202;2023-03-01T00:03:38;-2.40;99.90
62991;DHT22;49084;48.204;16.202;2023-03-01T00:06:04;-2.50;99.90
62991;DHT22;49084;48.204;16.202;2023-03-01T00:08:31;-2.50;99.90
62991;DHT22;49084;48.204;16.202;2023-03-01T00:11:05;-2.50;99.90
62991;DHT22;49084;48.204;16.202;2023-03-01T00:13:32;-2.50;99.90
62991;DHT22;49084;48.204;16.202;2023-03-01T00:15:58;-2.50;99.90
62991;DHT22;49084;48.204;16.202;2023-03-01T00:18:24;-2.50;99.90
62991;DHT22;49084;48.204;16.202;2023-03-01T00:20:51;-2.40;99.90
62991;DHT22;49084;48.204;16.202;2023-03-01T00:23:17;-2.60;99.90
62991;DHT22;49084;48.204;16.202;2023-03-01T00:25:43;-2.60;99.90
62991;DHT22;49084;48.204;16.202;2023-03-01T00:28:09;-2.60;99.90
62991;DHT22;49084;48.204;16.202;2023-03-01T00:30:34;-2.60;99.90
62991;DHT22;49084;48.204;16.202;2023-03-01T00:33:00;-2.60;99.90
62991;DHT22;49084;48.204;16.202;2023-03-01T00:35:26;-2.70;99.90
62991;DHT22;49084;48.204;16.202;2023-03-01T00:37:51;-2.60;99.90
62991;DHT22;49084;48.204;16.202;2023-03-01T00:40:27;-2.50;99.90
62991;DHT22;49084;48.204;16.202;2023-03-01T00:42:53;-2.40;99.90
62991;DHT22;49084;48.204;16.202;2023-03-01T00:45:19;-2.70;99.90
62991;DHT22;49084;48.204;16.202;2023-03-01T00:47:45;-2.50;99.90
62991;DHT22;49084;48.204;16.202;2023-03-01T00:50:11;-2.00;99.90
62991;DHT22;49084;48.204;16.202;2023-03-01T00:52:37;-2.10;99.90
62991;DHT22;49084;48.204;16.202;2023-03-01T00:55:03;-2.70;99.90
62991;DHT22;49084;48.204;16.202;2023-03-01T00:57:30;-2.80;99.90
62991;DHT22;49084;48.204;16.202;2023-03-01T00:59:55;-2.80;99.90
62991;DHT22;49084;48.204;16.202;2023-03-01T01:02:21;-1.90;99.90
62991;DHT22;49084;48.204;16.202;2023-03-01T01:04:47;-2.80;99.90
62991;DHT22;49084;48.204;16.202;2023-03-01T01:07:13;-2.90;99.90
62991;DHT22;49084;48.204;16.202;2023-03-01T01:09:39;-2.90;99.90
62991;DHT22;49084;48.204;16.202;2023-03-01T01:12:05;-2.80;99.90
62991;DHT22;49084;48.204;16.202;2023-03-01T01:14:31;-2.80;99.90
62991;DHT22;49084;48.204;16.202;2023-03-01T01:16:57;-2.80;99.90
62991;DHT22;49084;48.204;16.202;2023-03-01T01:19:23;-2.30;99.90
62991;DHT22;49084;48.204;16.202;2023-03-01T01:21:49;-2.20;99.90
62991;DHT22;49084;48.204;16.202;2023-03-01T01:24:15;-2.20;99.90
62991;DHT22;49084;48.204;16.202;2023-03-01T01:26:42;-2.90;99.90
62991;DHT22;49084;48.204;16.202;2023-03-01T01:29:08;-2.90;99.90
62991;DHT22;49084;48.204;16.202;2023-03-01T01:31:35;-2.80;99.90
62991;DHT22;49084;48.204;16.202;2023-03-01T01:34:04;-2.00;99.90
62991;DHT22;49084;48.204;16.202;2023-03-01T01:36:30;-3.00;99.90
62991;DHT22;49084;48.204;16.202;2023-03-01T01:38:56;-3.00;99.90
62991;DHT22;49084;48.204;16.202;2023-03-01T01:41:23;-3.00;99.90
62991;DHT22;49084;48.204;16.202;2023-03-01T01:44:11;-2.00;99.90
62991;DHT22;49084;48.204;16.202;2023-03-01T01:46:47;-3.00;99.90
62991;DHT22;49084;48.204;16.202;2023-03-01T01:51:51;-2.80;99.90
62991;DHT22;49084;48.204;16.202;2023-03-01T01:54:28;-2.70;99.90
62991;DHT22;49084;48.204;16.202;2023-03-01T01:57:03;-2.70;99.90
62991;DHT22;49084;48.204;16.202;2023-03-01T01:59:33;-2.60;99.90
62991;DHT22;49084;48.204;16.202;2023-03-01T02:02:00;-2.50;99.90
62991;DHT22;49084;48.204;16.202;2023-03-01T02:04:29;-2.50;99.90
62991;DHT22;49084;48.204;16.202;2023-03-01T02:07:03;-2.40;99.90
62991;DHT22;49084;48.204;16.202;2023-03-01T02:09:31;-2.30;99.90
62991;DHT22;49084;48.204;16.202;2023-03-01T02:11:57;-1.20;99.90
62991;DHT22;49084;48.204;16.202;2023-03-01T02:14:23;-2.10;99.90
62991;DHT22;49084;48.204;16.202;2023-03-01T02:16:49;-2.00;99.90
62991;DHT22;49084;48.204;16.202;2023-03-01T02:19:43;-0.80;99.90
62991;DHT22;49084;48.204;16.202;2023-03-01T02:22:24;-2.00;99.90
62991;DHT22;49084;48.204;16.202;2023-03-01T02:28:18;-1.90;99.90
62991;DHT22;49084;48.204;16.202;2023-03-01T02:30:46;-1.80;99.90
62991;DHT22;49084;48.204;16.202;2023-03-01T02:33:33;-1.80;99.90
62991;DHT22;49084;48.204;16.202;2023-03-01T02:36:13;-1.80;99.90
62991;DHT22;49084;48.204;16.202;2023-03-01T02:38:41;-1.80;99.90
62991;DHT22;49084;48.204;16.202;2023-03-01T02:41:08;-1.10;99.90
62991;DHT22;49084;48.204;16.202;2023-03-01T02:43:35;-1.80;99.90
62991;DHT22;49084;48.204;16.202;2023-03-01T02:46:14;-1.70;99.90
62991;DHT22;49084;48.204;16.202;2023-03-01T02:48:46;-1.70;99.90
62991;DHT22;49084;48.204;16.202;2023-03-01T02:56:24;-1.60;99.90
62991;DHT22;49084;48.204;16.202;2023-03-01T02:58:51;-1.30;99.90
62991;DHT22;49084;48.204;16.202;2023-03-01T03:01:19;-1.40;99.90
62991;DHT22;49084;48.204;16.202;2023-03-01T03:03:44;-1.50;99.90
62991;DHT22;49084;48.204;16.202;2023-03-01T03:06:10;-1.40;99.90
62991;DHT22;49084;48.204;16.202;2023-03-01T03:08:36;-1.40;99.90
62991;DHT22;49084;48.204;16.202;2023-03-01T03:11:02;-1.40;99.90
62991;DHT22;49084;48.204;16.202;2023-03-01T03:13:27;-1.30;99.90
62991;DHT22;49084;48.204;16.202;2023-03-01T03:15:55;-0.80;99.90
62991;DHT22;49084;48.204;16.202;2023-03-01T03:18:21;-1.30;99.90
62991;DHT22;49084;48.204;16.202;2023-03-01T03:20:48;-1.30;99.90
62991;DHT22;49084;48.204;16.202;2023-03-01T03:23:21;-0.80;99.90
62991;DHT22;49084;48.204;16.202;2023-03-01T03:25:50;-1.20;99.90
62991;DHT22;49084;48.204;16.202;2023-03-01T03:28:16;-1.10;99.90
62991;DHT22;49084;48.204;16.202;2023-03-01T03:30:43;-1.10;99.90
62991;DHT22;49084;48.204;16.202;2023-03-01T03:33:10;-1.10;99.90
62991;DHT22;49084;48.204;16.202;2023-03-01T03:35:47;-1.10;99.90
62991;DHT22;49084;48.204;16.202;2023-03-01T03:38:15;-0.80;99.90
62991;DHT22;49084;48.204;16.202;2023-03-01T03:41:05;-1.00;99.90
62991;DHT22;49084;48.204;16.202;2023-03-01T03:43:34;-1.00;99.90
62991;DHT22;49084;48.204;16.202;2023-03-01T03:46:01;-1.00;99.90
62991;DHT22;49084;48.204;16.202;2023-03-01T03:48:35;-1.00;99.90
62991;DHT22;49084;48.204;16.202;2023-03-01T03:51:01;-1.00;99.90
62991;DHT22;49084;48.204;16.202;2023-03-01T03:53:28;-0.90;99.90
62991;DHT22;49084;48.204;16.202;2023-03-01T03:55:54;-0.90;99.90
62991;DHT22;49084;48.204;16.202;2023-03-01T03:58:21;-0.60;99.90
62991;DHT22;49084;48.204;16.202;2023-03-01T04:00:50;-0.70;99.90
62991;DHT22;49084;48.204;16.202;2023-03-01T04:03:17;-0.80;99.90
62991;DHT22;49084;48.204;16.202;2023-03-01T04:05:44;-0.80;99.90
62991;DHT22;49084;48.204;16.202;2023-03-01T04:08:10;-0.70;99.90
62991;DHT22;49084;48.204;16.202;2023-03-01T04:10:38;-0.50;99.90
62991;DHT22;49084;48.204;16.202;2023-03-01T04:13:05;-0.70;99.90
62991;DHT22;49084;48.204;16.202;2023-03-01T04:15:32;-0.70;99.90
62991;DHT22;49084;48.204;16.202;2023-03-01T04:17:59;-0.70;99.90
62991;DHT22;49084;48.204;16.202;2023-03-01T04:20:28;-0.70;99.90
62991;DHT22;49084;48.204;16.202;2023-03-01T04:22:58;-0.70;99.90
62991;DHT22;49084;48.204;16.202;2023-03-01T04:25:24;-0.70;99.90
62991;DHT22;49084;48.204;16.202;2023-03-01T04:27:50;-0.70;99.90
62991;DHT22;49084;48.204;16.202;2023-03-01T04:30:16;-0.70;99.90
62991;DHT22;49084;48.204;16.202;2023-03-01T04:32:42;-0.70;99.90
62991;DHT22;49084;48.204;16.202;2023-03-01T04:35:08;-0.70;99.90
62991;DHT22;49084;48.204;16.202;2023-03-01T04:37:34;-0.70;99.90
62991;DHT22;49084;48.204;16.202;2023-03-01T04:40:03;-0.60;99.90
62991;DHT22;49084;48.204;16.202;2023-03-01T04:42:41;-0.60;99.90
62991;DHT22;49084;48.204;16.202;2023-03-01T04:45:08;-0.60;99.90
62991;DHT22;49084;48.204;16.202;2023-03-01T04:47:42;-0.50;99.90
62991;DHT22;49084;48.204;16.202;2023-03-01T04:50:11;-0.50;99.90
62991;DHT22;49084;48.204;16.202;2023-03-01T04:52:37;-0.50;99.90
62991;DHT22;49084;48.204;16.202;2023-03-01T04:55:04;-0.50;99.90
62991;DHT22;49084;48.204;16.202;2023-03-01T04:57:30;-0.50;99.90
62991;DHT22;49084;48.204;16.202;2023-03-01T04:59:56;-0.50;99.90
62991;DHT22;49084;48.204;16.202;2023-03-01T05:02:22;-0.50;99.90
62991;DHT22;49084;48.204;16.202;2023-03-01T05:04:47;-0.50;99.90
62991;DHT22;49084;48.204;16.202;2023-03-01T05:07:13;-0.40;99.90
62991;DHT22;49084;48.204;16.202;2023-03-01T05:09:45;-0.30;99.90
62991;DHT22;49084;48.204;16.202;2023-03-01T05:12:11;-0.30;99.90
62991;DHT22;49084;48.204;16.202;2023-03-01T05:14:37;0.00;99.90
62991;DHT22;49084;48.204;16.202;2023-03-01T05:17:04;-0.30;99.90
62991;DHT22;49084;48.204;16.202;2023-03-01T05:19:30;-0.10;99.90
62991;DHT22;49084;48.204;16.202;2023-03-01T05:21:57;-0.30;99.90
62991;DHT22;49084;48.204;16.202;2023-03-01T05:24:35;-0.30;99.90
62991;DHT22;49084;48.204;16.202;2023-03-01T05:27:01;-0.30;99.90
62991;DHT22;49084;48.204;16.202;2023-03-01T05:29:28;-0.20;99.90
62991;DHT22;49084;48.204;16.202;2023-03-01T05:31:59;-0.30;99.90
62991;DHT22;49084;48.204;16.202;2023-03-01T05:34:27;-0.20;99.90
62991;DHT22;49084;48.204;16.202;2023-03-01T05:36:53;-0.30;99.90
62991;DHT22;49084;48.204;16.202;2023-03-01T05:39:25;-0.30;99.90
62991;DHT22;49084;48.204;16.202;2023-03-01T05:41:59;-0.10;99.90
62991;DHT22;49084;48.204;16.202;2023-03-01T05:44:26;-0.10;99.90
62991;DHT22;49084;48.204;16.202;2023-03-01T05:46:52;-0.20;99.90
62991;DHT22;49084;48.204;16.202;2023-03-01T05:49:18;-0.20;99.90
62991;DHT22;49084;48.204;16.202;2023-03-01T05:51:50;-0.10;99.90
62991;DHT22;49084;48.204;16.202;2023-03-01T05:54:17;-0.10;99.90
62991;DHT22;49084;48.204;16.202;2023-03-01T05:56:43;-0.10;99.90
62991;DHT22;49084;48.204;16.202;2023-03-01T05:59:09;0.00;99.90
62991;DHT22;49084;48.204;16.202;2023-03-01T06:01:35;0.00;99.90
62991;DHT22;49084;48.204;16.202;2023-03-01T06:04:02;0.10;99.90
62991;DHT22;49084;48.204;16.202;2023-03-01T06:06:28;0.00;99.90
62991;DHT22;49084;48.204;16.202;2023-03-01T06:08:54;0.00;99.90
62991;DHT22;49084;48.204;16.202;2023-03-01T06:11:21;0.60;99.90
62991;DHT22;49084;48.204;16.202;2023-03-01T06:13:47;0.10;99.90
62991;DHT22;49084;48.204;16.202;2023-03-01T06:16:14;0.10;99.90
62991;DHT22;49084;48.204;16.202;2023-03-01T06:18:40;0.10;99.90
62991;DHT22;49084;48.204;16.202;2023-03-01T06:21:06;0.20;99.90
62991;DHT22;49084;48.204;16.202;2023-03-01T06:23:32;0.20;99.90
62991;DHT22;49084;48.204;16.202;2023-03-01T06:25:59;0.30;99.90
62991;DHT22;49084;48.204;16.202;2023-03-01T06:28:25;0.60;99.90
62991;DHT22;49084;48.204;16.202;2023-03-01T06:30:51;0.50;99.90
62991;DHT22;49084;48.204;16.202;2023-03-01T06:33:18;0.50;99.90
62991;DHT22;49084;48.204;16.202;2023-03-01T06:35:46;0.60;99.90
62991;DHT22;49084;48.204;16.202;2023-03-01T06:38:12;0.60;99.90
62991;DHT22;49084;48.204;16.202;2023-03-01T06:40:40;0.70;99.90
62991;DHT22;49084;48.204;16.202;2023-03-01T06:43:07;0.80;99.90
62991;DHT22;49084;48.204;16.202;2023-03-01T06:45:33;0.80;99.90
62991;DHT22;49084;48.204;16.202;2023-03-01T06:48:06;0.90;99.90
62991;DHT22;49084;48.204;16.202;2023-03-01T06:50:33;1.00;99.90
62991;DHT22;49084;48.204;16.202;2023-03-01T06:52:59;1.00;99.90
62991;DHT22;49084;48.204;16.202;2023-03-01T06:55:25;1.10;99.90
62991;DHT22;49084;48.204;16.202;2023-03-01T06:57:55;1.10;99.90
62991;DHT22;49084;48.204;16.202;2023-03-01T07:00:22;1.20;99.90
62991;DHT22;49084;48.204;16.202;2023-03-01T07:02:47;1.20;99.90
62991;DHT22;49084;48.204;16.202;2023-03-01T07:05:13;1.30;99.90
62991;DHT22;49084;48.204;16.202;2023-03-01T07:07:39;1.30;99.90
62991;DHT22;49084;48.204;16.202;2023-03-01T07:10:05;1.40;99.90
62991;DHT22;49084;48.204;16.202;2023-03-01T07:12:31;1.40;99.90
62991;DHT22;49084;48.204;16.202;2023-03-01T07:14:57;1.50;99.90
62991;DHT22;49084;48.204;16.202;2023-03-01T07:17:22;1.50;99.90
62991;DHT22;49084;48.204;16.202;2023-03-01T07:19:48;1.60;99.90
62991;DHT22;49084;48.204;16.202;2023-03-01T07:22:14;1.50;99.90
62991;DHT22;49084;48.204;16.202;2023-03-01T07:24:41;1.50;99.90
62991;DHT22;49084;48.204;16.202;2023-03-01T07:27:06;1.50;99.90
62991;DHT22;49084;48.204;16.202;2023-03-01T07:29:32;1.60;99.90
62991;DHT22;49084;48.204;16.202;2023-03-01T07:31:58;1.60;99.90
62991;DHT22;49084;48.204;16.202;2023-03-01T07:34:24;1.70;99.90
62991;DHT22;49084;48.204;16.202;2023-03-01T07:36:49;1.70;99.90
62991;DHT22;49084;48.204;16.202;2023-03-01T07:39:15;1.80;99.90
62991;DHT22;49084;48.204;16.202;2023-03-01T07:41:41;2.00;99.90
62991;DHT22;49084;48.204;16.202;2023-03-01T07:44:06;2.10;99.90
62991;DHT22;49084;48.204;16.202;2023-03-01T07:46:32;2.20;99.90
62991;DHT22;49084;48.204;16.202;2023-03-01T07:48:58;2.20;99.90
62991;DHT22;49084;48.204;16.202;2023-03-01T07:51:24;2.30;99.90
62991;DHT22;49084;48.204;16.202;2023-03-01T07:53:49;2.50;99.90
62991;DHT22;49084;48.204;16.202;2023-03-01T07:56:15;2.60;99.90
62991;DHT22;49084;48.204;16.202;2023-03-01T07:58:44;2.70;99.90
62991;DHT22;49084;48.204;16.202;2023-03-01T08:01:17;2.70;99.90
62991;DHT22;49084;48.204;16.202;2023-03-01T08:03:45;2.60;99.90
62991;DHT22;49084;48.204;16.202;2023-03-01T08:06:13;2.50;99.90
62991;DHT22;49084;48.204;16.202;2023-03-01T08:08:39;2.50;99.90
62991;DHT22;49084;48.204;16.202;2023-03-01T08:11:06;2.60;99.90
62991;DHT22;49084;48.204;16.202;2023-03-01T08:13:33;2.60;99.90
62991;DHT22;49084;48.204;16.202;2023-03-01T08:16:07;2.80;99.90
62991;DHT22;49084;48.204;16.202;2023-03-01T08:18:33;2.90;99.90
62991;DHT22;49084;48.204;16.202;2023-03-01T08:21:06;3.00;99.90
62991;DHT22;49084;48.204;16.202;2023-03-01T08:23:33;3.10;99.90
62991;DHT22;49084;48.204;16.202;2023-03-01T08:26:16;3.30;99.90
62991;DHT22;49084;48.204;16.202;2023-03-01T08:28:44;3.50;99.90
62991;DHT22;49084;48.204;16.202;2023-03-01T08:31:22;3.70;99.90
62991;DHT22;49084;48.204;16.202;2023-03-01T08:33:49;3.90;99.90
62991;DHT22;49084;48.204;16.202;2023-03-01T08:36:25;3.90;99.90
62991;DHT22;49084;48.204;16.202;2023-03-01T08:38:52;4.10;99.90
62991;DHT22;49084;48.204;16.202;2023-03-01T08:41:18;4.20;99.90
62991;DHT22;49084;48.204;16.202;2023-03-01T08:43:44;4.30;99.90
62991;DHT22;49084;48.204;16.202;2023-03-01T08:46:10;4.40;99.90
62991;DHT22;49084;48.204;16.202;2023-03-01T08:48:36;4.50;99.90
62991;DHT22;49084;48.204;16.202;2023-03-01T08:51:15;4.80;99.90
62991;DHT22;49084;48.204;16.202;2023-03-01T08:53:41;5.20;99.90
62991;DHT22;49084;48.204;16.202;2023-03-01T08:56:08;5.70;99.30
62991;DHT22;49084;48.204;16.202;2023-03-01T08:58:34;6.30;97.90
62991;DHT22;49084;48.204;16.202;2023-03-01T09:01:00;6.80;95.00
62991;DHT22;49084;48.204;16.202;2023-03-01T09:03:26;7.30;92.90
62991;DHT22;49084;48.204;16.202;2023-03-01T09:05:53;8.00;90.50
62991;DHT22;49084;48.204;16.202;2023-03-01T09:08:25;8.30;84.40
62991;DHT22;49084;48.204;16.202;2023-03-01T09:10:50;8.80;79.60
62991;DHT22;49084;48.204;16.202;2023-03-01T09:13:16;9.10;78.40
62991;DHT22;49084;48.204;16.202;2023-03-01T09:15:42;9.80;74.30
62991;DHT22;49084;48.204;16.202;2023-03-01T09:18:07;10.20;69.40
62991;DHT22;49084;48.204;16.202;2023-03-01T09:20:33;9.90;66.30
62991;DHT22;49084;48.204;16.202;2023-03-01T09:22:58;9.40;65.50
62991;DHT22;49084;48.204;16.202;2023-03-01T09:25:24;9.00;66.40
62991;DHT22;49084;48.204;16.202;2023-03-01T09:27:54;8.90;68.50
62991;DHT22;49084;48.204;16.202;2023-03-01T09:30:20;8.80;67.80
62991;DHT22;49084;48.204;16.202;2023-03-01T09:32:46;8.70;68.20
62991;DHT22;49084;48.204;16.202;2023-03-01T09:35:12;8.70;69.10
62991;DHT22;49084;48.204;16.202;2023-03-01T09:37:38;8.50;67.80
62991;DHT22;49084;48.204;16.202;2023-03-01T09:40:15;8.40;68.50
62991;DHT22;49084;48.204;16.202;2023-03-01T09:45:46;8.50;69.00
62991;DHT22;49084;48.204;16.202;2023-03-01T09:48:18;8.60;67.80
62991;DHT22;49084;48.204;16.202;2023-03-01T09:50:44;8.40;67.20
62991;DHT22;49084;48.204;16.202;2023-03-01T09:53:17;8.40;68.50
62991;DHT22;49084;48.204;16.202;2023-03-01T10:09:49;7.40;70.20
62991;DHT22;49084;48.204;16.202;2023-03-01T10:12:20;7.00;72.30
62991;DHT22;49084;48.204;16.202;2023-03-01T10:14:54;6.90;72.10
62991;DHT22;49084;48.204;16.202;2023-03-01T10:22:39;6.10;75.20
62991;DHT22;49084;48.204;16.202;2023-03-01T10:25:05;6.00;76.70
62991;DHT22;49084;48.204;16.202;2023-03-01T10:32:47;6.50;78.20
62991;DHT22;49084;48.204;16.202;2023-03-01T10:38:06;6.90;76.50
62991;DHT22;49084;48.204;16.202;2023-03-01T10:40:33;7.00;75.70
62991;DHT22;49084;48.204;16.202;2023-03-01T10:43:01;7.00;76.00
62991;DHT22;49084;48.204;16.202;2023-03-01T10:48:25;7.50;74.70
62991;DHT22;49084;48.204;16.202;2023-03-01T10:53:35;8.30;72.30
62991;DHT22;49084;48.204;16.202;2023-03-01T10:58:36;9.20;68.70
62991;DHT22;49084;48.204;16.202;2023-03-01T11:01:08;9.30;67.60
62991;DHT22;49084;48.204;16.202;2023-03-01T11:06:38;9.00;67.50
62991;DHT22;49084;48.204;16.202;2023-03-01T11:09:36;9.00;67.60
62991;DHT22;49084;48.204;16.202;2023-03-01T11:12:13;8.80;67.40
62991;DHT22;49084;48.204;16.202;2023-03-01T11:14:47;8.80;67.50
62991;DHT22;49084;48.204;16.202;2023-03-01T11:17:30;8.90;67.90
62991;DHT22;49084;48.204;16.202;2023-03-01T11:22:44;8.80;67.00
62991;DHT22;49084;48.204;16.202;2023-03-01T11:25:13;8.70;67.90
62991;DHT22;49084;48.204;16.202;2023-03-01T11:27:44;8.40;67.60
62991;DHT22;49084;48.204;16.202;2023-03-01T11:30:37;8.60;68.30
62991;DHT22;49084;48.204;16.202;2023-03-01T11:33:13;8.60;67.70
62991;DHT22;49084;48.204;16.202;2023-03-01T11:35:53;8.60;68.20
62991;DHT22;49084;48.204;16.202;2023-03-01T11:38:30;8.90;68.10
62991;DHT22;49084;48.204;16.202;2023-03-01T11:41:06;8.60;67.40
62991;DHT22;49084;48.204;16.202;2023-03-01T11:43:35;8.60;67.90
62991;DHT22;49084;48.204;16.202;2023-03-01T11:57:01;9.00;66.80
62991;DHT22;49084;48.204;16.202;2023-03-01T12:02:35;8.50;67.90
62991;DHT22;49084;48.204;16.202;2023-03-01T12:08:20;8.50;69.00
62991;DHT22;49084;48.204;16.202;2023-03-01T12:11:12;8.20;68.90
62991;DHT22;49084;48.204;16.202;2023-03-01T12:22:32;7.80;71.30
62991;DHT22;49084;48.204;16.202;2023-03-01T12:28:21;7.50;74.40
62991;DHT22;49084;48.204;16.202;2023-03-01T12:50:44;8.00;76.30
62991;DHT22;49084;48.204;16.202;2023-03-01T12:53:22;7.80;78.10
62991;DHT22;49084;48.204;16.202;2023-03-01T12:55:49;7.90;77.90
62991;DHT22;49084;48.204;16.202;2023-03-01T13:04:47;8.50;76.70
62991;DHT22;49084;48.204;16.202;2023-03-01T13:31:00;13.40;58.50
62991;DHT22;49084;48.204;16.202;2023-03-01T13:33:33;13.20;57.00
62991;DHT22;49084;48.204;16.202;2023-03-01T13:36:01;13.80;56.50
62991;DHT22;49084;48.204;16.202;2023-03-01T13:41:04;15.30;52.00
62991;DHT22;49084;48.204;16.202;2023-03-01T13:43:41;15.40;50.30
62991;DHT22;49084;48.204;16.202;2023-03-01T13:46:11;14.80;51.00
62991;DHT22;49084;48.204;16.202;2023-03-01T13:48:38;14.20;52.20
62991;DHT22;49084;48.204;16.202;2023-03-01T13:51:10;12.90;54.70
62991;DHT22;49084;48.204;16.202;2023-03-01T13:53:45;12.30;56.50
62991;DHT22;49084;48.204;16.202;2023-03-01T13:56:36;11.20;59.10
62991;DHT22;49084;48.204;16.202;2023-03-01T13:59:06;10.10;63.10
62991;DHT22;49084;48.204;16.202;2023-03-01T14:01:38;9.70;65.50
62991;DHT22;49084;48.204;16.202;2023-03-01T14:04:31;9.30;67.70
62991;DHT22;49084;48.204;16.202;2023-03-01T14:07:12;9.50;69.00
62991;DHT22;49084;48.204;16.202;2023-03-01T14:09:44;9.80;68.80
62991;DHT22;49084;48.204;16.202;2023-03-01T14:17:23;10.00;67.30
62991;DHT22;49084;48.204;16.202;2023-03-01T14:19:59;9.60;68.40
62991;DHT22;49084;48.204;16.202;2023-03-01T14:22:33;9.30;69.60
62991;DHT22;49084;48.204;16.202;2023-03-01T14:25:02;9.70;69.70
62991;DHT22;49084;48.204;16.202;2023-03-01T14:27:39;10.10;68.00
62991;DHT22;49084;48.204;16.202;2023-03-01T14:30:19;10.10;67.80
62991;DHT22;49084;48.204;16.202;2023-03-01T14:36:07;10.00;68.40
62991;DHT22;49084;48.204;16.202;2023-03-01T14:38:38;10.40;68.60
62991;DHT22;49084;48.204;16.202;2023-03-01T14:41:24;10.60;67.20
62991;DHT22;49084;48.204;16.202;2023-03-01T14:44:06;10.10;67.90
62991;DHT22;49084;48.204;16.202;2023-03-01T14:46:35;9.70;68.90
62991;DHT22;49084;48.204;16.202;2023-03-01T14:49:16;9.70;69.90
62991;DHT22;49084;48.204;16.202;2023-03-01T14:51:51;9.30;70.90
62991;DHT22;49084;48.204;16.202;2023-03-01T14:56:51;9.10;72.30
62991;DHT22;49084;48.204;16.202;2023-03-01T14:59:23;9.10;72.90
62991;DHT22;49084;48.204;16.202;2023-03-01T15:01:51;8.90;73.30
62991;DHT22;49084;48.204;16.202;2023-03-01T15:04:18;8.90;73.90
62991;DHT22;49084;48.204;16.202;2023-03-01T15:06:45;8.90;74.10
62991;DHT22;49084;48.204;16.202;2023-03-01T15:09:14;8.80;74.70
62991;DHT22;49084;48.204;16.202;2023-03-01T15:11:41;8.80;75.40
62991;DHT22;49084;48.204;16.202;2023-03-01T15:14:41;8.70;75.90
62991;DHT22;49084;48.204;16.202;2023-03-01T15:17:33;8.70;76.50
62991;DHT22;49084;48.204;16.202;2023-03-01T15:20:01;8.60;77.00
62991;DHT22;49084;48.204;16.202;2023-03-01T15:22:27;8.50;78.20
62991;DHT22;49084;48.204;16.202;2023-03-01T15:24:54;8.40;78.60
62991;DHT22;49084;48.204;16.202;2023-03-01T15:27:23;8.40;79.50
62991;DHT22;49084;48.204;16.202;2023-03-01T15:30:00;8.30;80.30
62991;DHT22;49084;48.204;16.202;2023-03-01T15:32:32;8.20;82.30
62991;DHT22;49084;48.204;16.202;2023-03-01T15:35:00;8.20;82.10
62991;DHT22;49084;48.204;16.202;2023-03-01T15:37:49;8.20;82.60
62991;DHT22;49084;48.204;16.202;2023-03-01T15:42:49;8.10;83.70
62991;DHT22;49084;48.204;16.202;2023-03-01T15:47:52;7.90;84.50
62991;DHT22;49084;48.204;16.202;2023-03-01T15:50:23;7.70;85.60
62991;DHT22;49084;48.204;16.202;2023-03-01T15:52:49;7.60;86.80
62991;DHT22;49084;48.204;16.202;2023-03-01T15:55:21;7.60;88.00
62991;DHT22;49084;48.204;16.202;2023-03-01T15:57:48;7.50;89.10
62991;DHT22;49084;48.204;16.202;2023-03-01T16:00:15;7.40;90.20
62991;DHT22;49084;48.204;16.202;2023-03-01T16:02:43;7.30;90.90
62991;DHT22;49084;48.204;16.202;2023-03-01T16:07:49;7.40;91.80
62991;DHT22;49084;48.204;16.202;2023-03-01T16:10:15;7.30;92.60
62991;DHT22;49084;48.204;16.202;2023-03-01T16:12:41;7.30;92.50
62991;DHT22;49084;48.204;16.202;2023-03-01T16:15:25;7.30;92.90
62991;DHT22;49084;48.204;16.202;2023-03-01T16:17:51;7.30;93.10
62991;DHT22;49084;48.204;16.202;2023-03-01T16:20:17;7.30;93.40
62991;DHT22;49084;48.204;16.202;2023-03-01T16:22:44;7.20;93.90
62991;DHT22;49084;48.204;16.202;2023-03-01T16:25:11;7.20;94.30
62991;DHT22;49084;48.204;16.202;2023-03-01T16:27:38;7.20;94.50
62991;DHT22;49084;48.204;16.202;2023-03-01T16:30:05;7.20;94.80
62991;DHT22;49084;48.204;16.202;2023-03-01T16:32:31;7.20;94.80
62991;DHT22;49084;48.204;16.202;2023-03-01T16:34:57;7.10;95.20
62991;DHT22;49084;48.204;16.202;2023-03-01T16:37:23;7.10;95.60
62991;DHT22;49084;48.204;16.202;2023-03-01T16:39:49;7.10;95.90
62991;DHT22;49084;48.204;16.202;2023-03-01T16:42:17;7.10;96.00
62991;DHT22;49084;48.204;16.202;2023-03-01T16:44:43;7.00;96.00
62991;DHT22;49084;48.204;16.202;2023-03-01T16:47:09;7.00;96.60
62991;DHT22;49084;48.204;16.202;2023-03-01T16:49:35;6.90;97.30
62991;DHT22;49084;48.204;16.202;2023-03-01T16:52:00;6.90;96.90
62991;DHT22;49084;48.204;16.202;2023-03-01T16:54:26;6.90;98.30
62991;DHT22;49084;48.204;16.202;2023-03-01T16:56:52;6.80;98.50
62991;DHT22;49084;48.204;16.202;2023-03-01T16:59:18;6.80;98.90
62991;DHT22;49084;48.204;16.202;2023-03-01T17:01:44;6.80;99.20
62991;DHT22;49084;48.204;16.202;2023-03-01T17:04:11;6.80;99.20
62991;DHT22;49084;48.204;16.202;2023-03-01T17:06:38;6.80;99.70
62991;DHT22;49084;48.204;16.202;2023-03-01T17:09:03;6.80;99.90
62991;DHT22;49084;48.204;16.202;2023-03-01T17:11:29;6.70;99.90
62991;DHT22;49084;48.204;16.202;2023-03-01T17:13:55;6.70;99.90
62991;DHT22;49084;48.204;16.202;2023-03-01T17:16:21;6.70;99.90
62991;DHT22;49084;48.204;16.202;2023-03-01T17:18:47;6.60;99.90
62991;DHT22;49084;48.204;16.202;2023-03-01T17:21:13;6.60;99.90
62991;DHT22;49084;48.204;16.202;2023-03-01T17:23:41;6.50;99.90
62991;DHT22;49084;48.204;16.202;2023-03-01T17:26:07;6.50;99.90
62991;DHT22;49084;48.204;16.202;2023-03-01T17:28:34;6.40;99.90
62991;DHT22;49084;48.204;16.202;2023-03-01T17:31:02;6.40;99.90
62991;DHT22;49084;48.204;16.202;2023-03-01T17:33:29;6.40;99.90
62991;DHT22;49084;48.204;16.202;2023-03-01T17:35:55;6.30;99.90
62991;DHT22;49084;48.204;16.202;2023-03-01T17:38:21;6.30;99.90
62991;DHT22;49084;48.204;16.202;2023-03-01T17:40:47;6.20;99.90
62991;DHT22;49084;48.204;16.202;2023-03-01T17:43:14;6.20;99.90
62991;DHT22;49084;48.204;16.202;2023-03-01T17:45:41;6.20;99.90
62991;DHT22;49084;48.204;16.202;2023-03-01T17:48:09;6.10;99.90
62991;DHT22;49084;48.204;16.202;2023-03-01T17:50:37;6.10;99.90
62991;DHT22;49084;48.204;16.202;2023-03-01T17:53:05;6.00;99.90
62991;DHT22;49084;48.204;16.202;2023-03-01T17:55:43;6.00;99.90
62991;DHT22;49084;48.204;16.202;2023-03-01T17:58:12;6.00;99.90
62991;DHT22;49084;48.204;16.202;2023-03-01T18:00:39;5.90;99.90
62991;DHT22;49084;48.204;16.202;2023-03-01T18:03:05;5.80;99.90
62991;DHT22;49084;48.204;16.202;2023-03-01T18:05:32;5.80;99.90
62991;DHT22;49084;48.204;16.202;2023-03-01T18:07:58;5.70;99.90
62991;DHT22;49084;48.204;16.202;2023-03-01T18:10:24;5.70;99.90
62991;DHT22;49084;48.204;16.202;2023-03-01T18:12:51;5.60;99.90